Time;durP1;ratioP1;P1;durP2;ratioP2;P2;SDS_P1;SDS_P2;PMS_P1;PMS_P2;Temp;Humidity;BMP_temperature;BMP_pressure;BME280_temperature;BME280_humidity;BME280_pressure;Samples;Min_cycle;Max_cycle;Signal;HPM_P1;HPM_P2
2023/03/09 00:00:11;;;;;;;5.85;3.15;;;17.10;66.20;;;;;;10483176;28;20454;-24
2023/03/09 00:05:15;;;;;;;4.18;2.25;;;17.10;66.20;;;;;;10500882;28;20047;-23
2023/03/09 00:10:18;;;;;;;5.13;2.60;;;17.00;66.00;;;;;;10499155;28;20549;-24
2023/03/09 00:15:21;;;;;;;3.58;1.65;;;17.00;66.10;;;;;;10499056;28;20088;-23
2023/03/09 00:20:24;;;;;;;1.92;1.35;;;17.00;65.80;;;;;;10495594;28;20033;-24
2023/03/09 00:25:26;;;;;;;4.40;2.42;;;16.90;66.00;;;;;;10481020;28;20706;-22
2023/03/09 00:30:29;;;;;;;3.20;1.90;;;17.00;65.80;;;;;;10492081;28;20174;-24
2023/03/09 00:35:31;;;;;;;3.55;1.73;;;16.90;66.20;;;;;;10498697;28;20083;-22
2023/03/09 00:40:33;;;;;;;2.50;1.50;;;16.90;66.00;;;;;;10488177;28;20124;-23
2023/03/09 00:45:36;;;;;;;7.25;3.92;;;17.00;65.60;;;;;;10491891;28;20486;-23
2023/03/09 00:50:38;;;;;;;4.40;2.42;;;17.00;65.50;;;;;;10491855;28;20123;-22
2023/03/09 00:55:39;;;;;;;3.47;2.13;;;16.80;66.00;;;;;;10501625;28;20050;-24
2023/03/09 01:00:43;;;;;;;3.80;1.60;;;16.90;65.50;;;;;;10495461;28;20090;-25
2023/03/09 01:05:44;;;;;;;1.98;1.27;;;16.80;66.00;;;;;;10494502;28;20045;-24
2023/03/09 01:10:46;;;;;;;3.40;2.00;;;16.90;65.50;;;;;;10494751;28;20134;-24
2023/03/09 01:15:50;;;;;;;5.00;3.07;;;16.80;65.50;;;;;;10494523;28;20056;-22
2023/03/09 01:20:51;;;;;;;3.80;1.60;;;16.80;65.50;;;;;;10488120;28;20503;-23
2023/03/09 01:25:53;;;;;;;3.73;2.03;;;16.70;65.50;;;;;;10485259;28;20040;-23
2023/03/09 01:30:57;;;;;;;5.13;1.43;;;16.80;65.50;;;;;;10484932;28;20561;-24
2023/03/09 01:35:58;;;;;;;3.40;1.45;;;16.70;65.20;;;;;;10488554;28;20094;-23
2023/03/09 01:41:01;;;;;;;1.40;1.10;;;16.80;65.20;;;;;;10488719;28;20166;-23
2023/03/09 01:46:34;;;;;;;2.38;1.13;;;16.70;65.60;;;;;;10490826;28;20048;-23
2023/03/09 01:51:41;;;;;;;5.22;1.45;;;16.70;65.20;;;;;;10487045;28;20046;-22
2023/03/09 01:56:44;;;;;;;2.70;1.20;;;16.60;65.30;;;;;;10484870;28;20460;-25
2023/03/09 02:01:48;;;;;;;4.72;1.60;;;16.70;64.70;;;;;;10487126;28;20045;-23
2023/03/09 02:06:50;;;;;;;2.78;1.90;;;16.60;65.00;;;;;;10485411;28;20076;-23
2023/03/09 02:11:52;;;;;;;1.77;1.50;;;16.70;64.70;;;;;;10487264;28;20053;-23
2023/03/09 02:16:55;;;;;;;3.22;1.20;;;16.70;64.80;;;;;;10500780;28;20072;-24
2023/03/09 02:21:57;;;;;;;3.30;1.75;;;16.60;64.60;;;;;;10497107;28;20060;-24
2023/03/09 02:27:02;;;;;;;4.10;1.63;;;16.60;64.60;;;;;;10486031;28;20442;-22
2023/03/09 02:32:05;;;;;;;1.83;1.15;;;16.70;64.40;;;;;;10493436;28;20558;-24
2023/03/09 02:37:23;;;;;;;1.95;1.10;;;16.60;64.50;;;;;;10486765;28;20492;-24
2023/03/09 02:42:28;;;;;;;2.38;1.40;;;16.50;64.60;;;;;;10487900;28;20152;-23
2023/03/09 02:47:36;;;;;;;1.70;1.10;;;16.50;64.70;;;;;;10503665;28;20052;-24
2023/03/09 02:52:38;;;;;;;3.75;1.95;;;16.50;64.50;;;;;;10484107;28;20120;-24
2023/03/09 02:57:40;;;;;;;1.45;1.08;;;16.60;64.40;;;;;;10484401;28;20476;-23
2023/03/09 03:02:43;;;;;;;;;;;16.50;64.30;;;;;;10484395;28;20049;-23
2023/03/09 03:07:46;;;;;;;1.30;1.20;;;16.50;64.50;;;;;;10486594;28;19928;-23
2023/03/09 03:12:47;;;;;;;2.72;2.03;;;16.50;64.40;;;;;;10479651;28;20071;-22
2023/03/09 03:17:51;;;;;;;2.43;1.73;;;16.50;64.60;;;;;;10493166;28;20094;-23
2023/03/09 03:22:53;;;;;;;1.52;1.30;;;16.50;63.80;;;;;;10483853;28;20482;-23
2023/03/09 03:27:55;;;;;;;2.55;1.17;;;16.50;64.00;;;;;;10488991;28;20060;-22
2023/03/09 03:32:58;;;;;;;1.90;1.30;;;16.50;64.20;;;;;;10496986;28;20097;-23
2023/03/09 03:38:00;;;;;;;4.05;1.40;;;16.50;63.90;;;;;;10488501;28;20140;-23
2023/03/09 03:43:02;;;;;;;2.08;1.10;;;16.40;64.10;;;;;;10490782;28;20033;-23
2023/03/09 03:48:06;;;;;;;2.83;0.93;;;16.40;64.00;;;;;;10487391;28;20036;-23
2023/03/09 03:53:08;;;;;;;1.80;1.30;;;16.40;64.30;;;;;;10495035;28;20128;-23
2023/03/09 03:58:09;;;;;;;1.60;1.20;;;16.50;63.80;;;;;;10495793;28;20052;-23
2023/03/09 04:03:13;;;;;;;1.10;0.97;;;16.40;63.80;;;;;;10486211;28;20103;-22
2023/03/09 04:08:15;;;;;;;1.58;0.95;;;16.40;64.10;;;;;;10498026;28;20902;-23
2023/03/09 04:13:17;;;;;;;0.90;0.90;;;16.40;63.90;;;;;;10499285;28;20145;-23
2023/03/09 04:18:20;;;;;;;2.10;0.80;;;16.50;63.50;;;;;;10495499;28;20255;-23
2023/03/09 04:23:22;;;;;;;1.45;1.20;;;16.30;63.80;;;;;;10492188;28;20483;-23
2023/03/09 04:28:25;;;;;;;1.10;0.83;;;16.40;63.40;;;;;;10490507;28;20053;-22
2023/03/09 04:33:28;;;;;;;;;;;16.30;63.90;;;;;;10498583;28;20053;-23
2023/03/09 04:38:30;;;;;;;;;;;16.40;63.00;;;;;;10496565;28;20283;-25
2023/03/09 04:43:32;;;;;;;0.90;0.90;;;16.70;62.10;;;;;;10493087;28;19929;-23
2023/03/09 04:48:35;;;;;;;0.75;0.65;;;17.00;61.20;;;;;;10496009;28;20104;-23
2023/03/09 04:53:37;;;;;;;0.90;0.70;;;17.00;60.90;;;;;;10494510;28;20076;-24
2023/03/09 04:58:38;;;;;;;1.10;0.60;;;17.20;60.70;;;;;;10488200;28;20060;-23
2023/03/09 05:03:41;;;;;;;1.33;0.40;;;17.20;60.40;;;;;;10491999;28;20398;-24
2023/03/09 05:08:43;;;;;;;0.50;0.50;;;17.30;60.30;;;;;;10493036;28;20048;-24
2023/03/09 05:13:45;;;;;;;0.77;0.68;;;17.40;60.10;;;;;;10495217;28;20493;-23
2023/03/09 05:18:51;;;;;;;0.80;0.60;;;17.40;60.00;;;;;;10491973;28;20473;-22
2023/03/09 05:23:52;;;;;;;1.13;0.68;;;17.50;60.00;;;;;;10487933;28;20570;-24
2023/03/09 05:28:54;;;;;;;1.55;0.68;;;17.50;60.00;;;;;;10487763;28;20447;-23
2023/03/09 05:33:57;;;;;;;0.80;0.57;;;17.50;60.10;;;;;;10491052;28;20234;-25
2023/03/09 05:38:59;;;;;;;0.70;0.60;;;17.50;60.00;;;;;;10487970;28;20093;-24
2023/03/09 05:44:01;;;;;;;1.98;0.47;;;17.50;60.10;;;;;;10490718;28;20521;-25
2023/03/09 05:49:04;;;;;;;1.08;0.80;;;17.50;60.10;;;;;;10490586;28;20064;-23
2023/03/09 05:54:06;;;;;;;0.70;0.70;;;17.50;60.30;;;;;;10489782;28;20127;-25
2023/03/09 05:59:08;;;;;;;0.57;0.50;;;17.50;60.20;;;;;;10497895;28;20087;-26
2023/03/09 06:04:11;;;;;;;1.23;0.57;;;17.50;60.30;;;;;;10498049;28;20140;-23
2023/03/09 06:09:13;;;;;;;0.63;0.60;;;17.50;60.30;;;;;;10487531;28;20064;-23
2023/03/09 06:14:16;;;;;;;0.52;0.38;;;17.50;60.00;;;;;;10496335;28;20055;-23
2023/03/09 06:19:19;;;;;;;0.77;0.60;;;17.50;60.00;;;;;;10507820;28;20075;-23
2023/03/09 06:24:21;;;;;;;0.85;0.60;;;17.50;59.80;;;;;;10487883;28;20098;-23
2023/03/09 06:29:22;;;;;;;0.40;0.40;;;17.60;59.80;;;;;;10482673;28;20545;-23
2023/03/09 06:34:29;;;;;;;0.32;0.32;;;17.60;59.90;;;;;;10486627;28;20540;-23
2023/03/09 06:39:31;;;;;;;0.90;0.60;;;17.50;60.00;;;;;;10498252;28;20140;-23
2023/03/09 06:44:33;;;;;;;1.60;1.10;;;17.50;60.10;;;;;;10486818;28;20537;-23
2023/03/09 06:49:37;;;;;;;4.70;1.40;;;17.30;60.60;;;;;;10481816;28;20548;-23
2023/03/09 06:54:39;;;;;;;11.95;2.10;;;17.10;61.90;;;;;;10481322;28;20396;-23
2023/03/09 06:59:41;;;;;;;18.52;2.80;;;16.80;63.70;;;;;;10488478;28;20105;-23
2023/03/09 07:15:09;;;;;;;30.13;4.50;;;17.20;61.60;;;;;;10521091;27;1353476;-25
2023/03/09 07:20:12;;;;;;;42.65;5.32;;;16.90;63.40;;;;;;10553355;28;20392;-24
2023/03/09 07:25:13;;;;;;;32.60;4.35;;;16.90;64.30;;;;;;10559566;28;20109;-23
2023/03/09 07:30:18;;;;;;;60.97;5.07;;;16.80;65.20;;;;;;10546958;28;20233;-21
2023/03/09 07:35:20;;;;;;;47.67;6.20;;;16.70;65.70;;;;;;10551492;28;20456;-22
2023/03/09 07:40:22;;;;;;;53.55;6.72;;;16.50;67.30;;;;;;10553601;28;20433;-23
2023/03/09 07:45:25;;;;;;;69.77;7.60;;;16.20;70.80;;;;;;10562948;28;20052;-27
2023/03/09 07:50:27;;;;;;;77.82;7.45;;;16.30;72.80;;;;;;10557054;28;20470;-24
2023/03/09 07:55:29;;;;;;;84.07;8.23;;;16.30;72.80;;;;;;10559248;28;20036;-25
2023/03/09 08:00:34;;;;;;;121.43;11.65;;;16.30;73.80;;;;;;10548185;28;20048;-24
2023/03/09 08:05:36;;;;;;;108.20;9.95;;;16.30;74.10;;;;;;10544480;28;20097;-24
2023/03/09 08:10:38;;;;;;;135.97;11.03;;;16.30;76.20;;;;;;10545922;28;20150;-23
2023/03/09 08:15:41;;;;;;;107.20;9.05;;;16.20;75.90;;;;;;10556797;28;20043;-24
2023/03/09 08:20:43;;;;;;;146.73;14.05;;;16.30;75.20;;;;;;10551779;28;20124;-23
2023/03/09 08:25:45;;;;;;;127.13;13.27;;;16.10;79.60;;;;;;10528327;28;20080;-25
2023/03/09 08:30:49;;;;;;;139.20;14.30;;;16.20;78.10;;;;;;10524832;28;20548;-23
2023/03/09 08:35:51;;;;;;;141.85;14.77;;;16.20;77.60;;;;;;10521300;28;20471;-24
2023/03/09 08:40:53;;;;;;;154.73;16.03;;;16.20;78.80;;;;;;10530309;28;20117;-26
2023/03/09 08:45:57;;;;;;;191.57;19.83;;;16.10;78.80;;;;;;10532209;28;20468;-23
2023/03/09 08:51:00;;;;;;;171.57;16.65;;;16.20;79.20;;;;;;10524894;28;20497;-26
2023/03/09 08:56:04;;;;;;;130.85;11.75;;;16.20;80.50;;;;;;10516842;28;20538;-25
2023/03/09 09:01:09;;;;;;;206.30;20.70;;;16.20;78.90;;;;;;10523360;28;20127;-23
2023/03/09 09:06:13;;;;;;;203.82;24.95;;;16.20;79.60;;;;;;10519577;28;20040;-23
2023/03/09 09:11:17;;;;;;;262.90;27.33;;;16.10;79.40;;;;;;10524179;28;20286;-23
2023/03/09 09:16:20;;;;;;;303.08;33.20;;;16.10;80.50;;;;;;10510623;28;20454;-23
2023/03/09 09:21:22;;;;;;;277.70;31.52;;;16.10;79.90;;;;;;10528460;28;20058;-24
2023/03/09 09:26:24;;;;;;;203.02;26.20;;;16.10;82.40;;;;;;10527483;28;20050;-23
2023/03/09 09:31:29;;;;;;;230.93;27.83;;;16.10;79.40;;;;;;10517505;28;20052;-22
2023/03/09 09:36:33;;;;;;;151.18;25.45;;;16.00;80.10;;;;;;10515295;28;20340;-23
2023/03/09 09:41:41;;;;;;;210.52;31.38;;;16.00;81.80;;;;;;10520542;28;20079;-24
2023/03/09 09:46:47;;;;;;;200.43;26.05;;;16.00;80.70;;;;;;10524840;28;20456;-27
2023/03/09 09:52:12;;;;;;;155.57;27.35;;;16.00;82.40;;;;;;10523796;28;20094;-24
2023/03/09 09:57:18;;;;;;;151.38;26.40;;;16.00;82.00;;;;;;10520635;28;20086;-24
2023/03/09 10:02:40;;;;;;;129.82;24.92;;;16.00;81.90;;;;;;10520198;28;20526;-23
2023/03/09 10:07:42;;;;;;;106.50;21.83;;;16.00;81.60;;;;;;10517583;28;20044;-24
2023/03/09 10:12:45;;;;;;;124.17;22.13;;;16.10;80.40;;;;;;10517954;28;20043;-25
2023/03/09 10:17:54;;;;;;;120.82;23.33;;;15.90;85.70;;;;;;10525084;28;20456;-23
2023/03/09 10:22:57;;;;;;;121.18;25.33;;;15.90;81.70;;;;;;10522937;28;20089;-23
2023/03/09 10:28:03;;;;;;;122.15;23.98;;;15.90;84.10;;;;;;10524318;28;20123;-22
2023/03/09 10:33:12;;;;;;;110.97;23.17;;;15.90;83.90;;;;;;10522100;28;20063;-21
2023/03/09 10:38:15;;;;;;;131.90;26.15;;;16.00;81.80;;;;;;10517666;28;20066;-24
2023/03/09 10:43:22;;;;;;;166.48;31.33;;;15.90;83.00;;;;;;10520370;28;20048;-23
2023/03/09 10:48:27;;;;;;;143.27;28.42;;;15.90;84.40;;;;;;10521505;28;20051;-24
2023/03/09 10:53:36;;;;;;;138.40;25.30;;;16.00;83.10;;;;;;10519391;28;21487;-24
2023/03/09 10:58:38;;;;;;;166.43;30.80;;;16.10;83.00;;;;;;10524249;28;20040;-23
2023/03/09 11:03:43;;;;;;;216.70;34.42;;;16.00;78.80;;;;;;10517323;28;20060;-24
2023/03/09 11:08:55;;;;;;;209.20;33.10;;;16.00;80.40;;;;;;10519129;28;20533;-23
2023/03/09 11:13:57;;;;;;;214.00;34.45;;;16.10;82.70;;;;;;10513728;28;20060;-23
2023/03/09 11:19:12;;;;;;;201.82;30.13;;;16.00;84.40;;;;;;10523523;28;20131;-25
2023/03/09 11:24:15;;;;;;;173.13;29.95;;;16.00;81.30;;;;;;10517326;28;20677;-23
2023/03/09 11:29:25;;;;;;;172.38;30.40;;;16.00;86.60;;;;;;10525007;28;20040;-24
2023/03/09 11:34:32;;;;;;;170.77;26.75;;;16.10;87.90;;;;;;10521441;28;20078;-24
2023/03/09 11:39:40;;;;;;;203.85;30.55;;;16.10;79.20;;;;;;10517729;28;20064;-23
2023/03/09 11:44:44;;;;;;;189.80;32.65;;;16.20;85.60;;;;;;10519236;28;20097;-24
2023/03/09 11:49:49;;;;;;;278.50;44.13;;;16.20;81.10;;;;;;10523170;28;20048;-24
2023/03/09 11:54:55;;;;;;;288.98;40.58;;;16.10;81.00;;;;;;10522383;28;20568;-25
2023/03/09 12:00:05;;;;;;;315.65;42.47;;;16.20;81.70;;;;;;10522464;28;20131;-24
2023/03/09 12:05:12;;;;;;;410.88;53.53;;;16.10;85.30;;;;;;10520653;28;20070;-23
2023/03/09 12:10:18;;;;;;;406.77;55.88;;;16.20;80.30;;;;;;10523249;28;20032;-24
2023/03/09 12:15:27;;;;;;;390.58;56.25;;;16.00;86.80;;;;;;10526164;28;20070;-23
2023/03/09 12:20:34;;;;;;;463.88;61.63;;;16.10;84.40;;;;;;10529475;28;20146;-24
2023/03/09 12:25:36;;;;;;;425.20;59.35;;;16.00;85.00;;;;;;10516358;28;20041;-23
2023/03/09 12:30:51;;;;;;;444.95;63.55;;;16.10;84.00;;;;;;10521490;28;20135;-25
2023/03/09 12:36:04;;;;;;;343.73;48.38;;;16.10;79.30;;;;;;10525894;28;20123;-24
2023/03/09 12:41:25;;;;;;;389.93;48.63;;;16.20;84.20;;;;;;10530128;28;20494;-24
2023/03/09 12:46:51;;;;;;;369.45;45.53;;;16.10;78.90;;;;;;10531860;28;20074;-24
2023/03/09 12:52:17;;;;;;;456.50;60.15;;;16.00;85.30;;;;;;10519357;28;20484;-24
2023/03/09 12:57:20;;;;;;;538.75;66.65;;;16.00;84.20;;;;;;10525759;28;20115;-24
2023/03/09 13:02:32;;;;;;;468.13;55.70;;;16.10;83.40;;;;;;10515827;28;20059;-24
2023/03/09 13:07:36;;;;;;;501.00;72.33;;;16.00;86.20;;;;;;10518477;28;20170;-24
2023/03/09 13:12:37;;;;;;;531.55;67.93;;;16.00;87.40;;;;;;10507845;28;20063;-24
2023/03/09 13:17:40;;;;;;;358.47;52.70;;;16.30;85.00;;;;;;10502821;28;20139;-24
2023/03/09 13:22:44;;;;;;;485.75;63.70;;;16.10;85.30;;;;;;10509224;28;20072;-24
2023/03/09 13:27:46;;;;;;;469.15;65.45;;;16.00;90.10;;;;;;10523613;28;20040;-23
2023/03/09 13:33:00;;;;;;;322.00;45.88;;;16.20;83.60;;;;;;10525177;28;20139;-26
2023/03/09 13:38:05;;;;;;;286.23;44.78;;;16.50;77.00;;;;;;10515105;28;21340;-24
2023/03/09 13:43:15;;;;;;;221.27;34.95;;;16.60;76.30;;;;;;10518897;28;20485;-25
2023/03/09 13:48:17;;;;;;;59.53;13.70;;;17.00;70.00;;;;;;10515555;28;20040;-24
2023/03/09 13:53:24;;;;;;;37.07;9.90;;;17.40;66.40;;;;;;10520050;28;20396;-25
2023/03/09 13:58:28;;;;;;;39.33;9.75;;;17.60;65.20;;;;;;10521656;28;20450;-24
2023/03/09 14:03:33;;;;;;;364.13;43.67;;;17.70;64.70;;;;;;10515650;28;20461;-25
2023/03/09 14:08:42;;;;;;;317.27;39.17;;;17.20;71.50;;;;;;10511690;28;20047;-24
2023/03/09 14:13:50;;;;;;;111.97;19.10;;;17.70;66.20;;;;;;10514330;28;20188;-27
2023/03/09 14:18:55;;;;;;;59.25;10.82;;;17.90;64.60;;;;;;10514720;28;20451;-25
2023/03/09 14:24:11;;;;;;;37.50;8.13;;;17.90;63.80;;;;;;10519632;28;20604;-24
2023/03/09 14:29:22;;;;;;;21.27;7.32;;;18.00;63.70;;;;;;10515230;28;20120;-24
2023/03/09 14:34:27;;;;;;;32.97;6.82;;;18.00;63.70;;;;;;10510945;28;20044;-23
2023/03/09 14:39:33;;;;;;;14.43;5.80;;;18.00;63.40;;;;;;10510487;28;20442;-23
2023/03/09 14:44:39;;;;;;;44.35;10.10;;;18.00;63.70;;;;;;10521667;28;20044;-23
2023/03/09 14:49:41;;;;;;;83.93;13.05;;;17.90;63.60;;;;;;10513838;28;20052;-24
2023/03/09 14:54:45;;;;;;;84.38;11.15;;;17.90;63.70;;;;;;10516115;28;20124;-24
2023/03/09 14:59:47;;;;;;;146.15;22.02;;;17.90;63.50;;;;;;10506600;28;20393;-24
2023/03/09 15:04:49;;;;;;;540.08;65.00;;;17.80;64.90;;;;;;10519722;28;20047;-23
2023/03/09 15:09:52;;;;;;;501.50;69.57;;;17.50;69.30;;;;;;10519962;28;20044;-24
2023/03/09 15:14:54;;;;;;;339.27;42.80;;;17.50;68.30;;;;;;10523223;28;20090;-23
2023/03/09 15:19:56;;;;;;;188.18;28.25;;;17.70;65.90;;;;;;10514299;28;20052;-24
2023/03/09 15:24:59;;;;;;;179.10;28.87;;;17.80;64.50;;;;;;10516087;28;20048;-25
2023/03/09 15:30:02;;;;;;;293.52;34.55;;;17.80;65.00;;;;;;10516137;28;20076;-24
2023/03/09 15:35:05;;;;;;;529.00;72.00;;;17.50;67.60;;;;;;10520719;28;20551;-24
2023/03/09 15:40:09;;;;;;;;;;;17.30;72.10;;;;;;10525578;28;20084;-24
2023/03/09 15:45:13;;;;;;;411.27;49.85;;;17.50;69.20;;;;;;10529853;28;20215;-24
2023/03/09 15:50:15;;;;;;;146.25;25.52;;;17.40;68.80;;;;;;10516490;28;20142;-24
2023/03/09 15:55:19;;;;;;;88.75;15.70;;;17.70;65.60;;;;;;10530052;28;20056;-23
2023/03/09 16:00:22;;;;;;;232.98;29.15;;;17.80;65.20;;;;;;10524227;28;20873;-24
2023/03/09 16:05:24;;;;;;;376.48;41.33;;;17.50;66.50;;;;;;10524223;28;20583;-23
2023/03/09 16:10:28;;;;;;;297.35;35.88;;;17.60;67.20;;;;;;10510328;28;20037;-23
2023/03/09 16:15:30;;;;;;;282.58;38.33;;;17.50;67.10;;;;;;10522117;28;20078;-24
2023/03/09 16:20:31;;;;;;;144.45;24.83;;;17.50;67.70;;;;;;10518180;28;20066;-24
2023/03/09 16:25:35;;;;;;;268.98;37.50;;;17.60;66.20;;;;;;10522669;28;20063;-25
2023/03/09 16:30:37;;;;;;;179.52;26.73;;;17.30;69.60;;;;;;10524692;28;20073;-24
2023/03/09 16:35:39;;;;;;;52.42;9.88;;;17.50;66.20;;;;;;10529015;28;21409;-25
2023/03/09 16:40:42;;;;;;;34.65;8.38;;;17.80;64.90;;;;;;10528672;28;20067;-24
2023/03/09 16:45:53;;;;;;;49.10;9.98;;;17.60;65.40;;;;;;10519318;28;20063;-26
2023/03/09 16:50:56;;;;;;;46.20;9.85;;;17.60;65.80;;;;;;10523035;28;20050;-25
2023/03/09 16:56:01;;;;;;;48.53;9.85;;;17.60;65.50;;;;;;10516563;28;20592;-24
2023/03/09 17:01:10;;;;;;;54.67;10.27;;;17.70;65.10;;;;;;10513987;28;20577;-25
2023/03/09 17:06:13;;;;;;;69.75;12.63;;;17.60;65.70;;;;;;10519397;28;20033;-27
2023/03/09 17:11:17;;;;;;;89.85;16.30;;;17.30;67.30;;;;;;10513235;28;20052;-24
2023/03/09 17:16:20;;;;;;;53.08;14.50;;;17.10;70.20;;;;;;10514367;28;20040;-26
2023/03/09 17:21:22;;;;;;;48.58;17.55;;;17.40;67.00;;;;;;10512994;28;20119;-28
2023/03/09 17:26:25;;;;;;;40.92;21.48;;;17.60;66.60;;;;;;10522782;28;20067;-26
2023/03/09 17:31:27;;;;;;;53.55;25.77;;;17.50;62.70;;;;;;10519865;28;20068;-25
2023/03/09 17:36:29;;;;;;;;;;;17.60;67.70;;;;;;10514355;28;20060;-25
2023/03/09 17:41:32;;;;;;;57.63;29.48;;;17.60;67.80;;;;;;10525866;28;20558;-24
2023/03/09 17:46:34;;;;;;;70.50;31.90;;;17.50;68.20;;;;;;10522382;28;20492;-26
2023/03/09 17:51:36;;;;;;;62.72;31.65;;;17.60;68.40;;;;;;10520171;28;20445;-26
2023/03/09 17:56:39;;;;;;;55.05;30.83;;;17.70;68.00;;;;;;10517257;28;20109;-26
2023/03/09 18:01:41;;;;;;;82.68;30.92;;;17.70;67.60;;;;;;10518717;28;20337;-29
2023/03/09 18:06:44;;;;;;;85.90;26.87;;;17.30;71.30;;;;;;10518640;28;20036;-25
2023/03/09 18:11:47;;;;;;;61.25;23.73;;;17.10;72.00;;;;;;10511854;28;21540;-25
2023/03/09 18:16:49;;;;;;;70.38;23.95;;;16.90;73.50;;;;;;10517957;28;20135;-23
2023/03/09 18:21:51;;;;;;;72.77;23.90;;;16.60;76.30;;;;;;10518869;28;20117;-23
2023/03/09 18:26:54;;;;;;;66.13;23.48;;;16.80;75.70;;;;;;10502744;28;20127;-25
2023/03/09 18:31:56;;;;;;;53.97;20.35;;;16.60;77.40;;;;;;10516672;28;20048;-24
2023/03/09 18:36:58;;;;;;;67.00;20.77;;;16.70;76.60;;;;;;10517025;28;20067;-25
2023/03/09 18:42:01;;;;;;;58.15;18.45;;;16.80;75.60;;;;;;10509782;28;21602;-24
2023/03/09 18:47:03;;;;;;;40.15;16.90;;;16.90;74.80;;;;;;10507437;28;20044;-24
2023/03/09 18:52:05;;;;;;;51.20;15.93;;;17.00;73.80;;;;;;10518517;28;20124;-25
2023/03/09 18:57:09;;;;;;;58.78;17.65;;;16.90;75.40;;;;;;10512697;28;20083;-27
2023/03/09 19:02:12;;;;;;;45.05;16.40;;;17.50;75.20;;;;;;10519416;28;20358;-25
2023/03/09 19:07:14;;;;;;;34.55;15.63;;;17.40;71.30;;;;;;10513510;28;20619;-29
2023/03/09 19:12:18;;;;;;;28.08;13.38;;;17.70;69.30;;;;;;10512798;28;20501;-30
2023/03/09 19:17:20;;;;;;;21.08;12.10;;;17.70;69.50;;;;;;10522032;28;20085;-26
2023/03/09 19:22:22;;;;;;;27.80;13.88;;;17.70;69.20;;;;;;10520829;28;20044;-25
2023/03/09 19:27:26;;;;;;;18.13;10.70;;;17.50;70.00;;;;;;10515754;28;20045;-25
2023/03/09 19:32:29;;;;;;;23.15;11.60;;;17.80;68.90;;;;;;10524586;28;20079;-24
2023/03/09 19:37:31;;;;;;;27.35;12.13;;;17.80;69.10;;;;;;10520450;28;20117;-25
2023/03/09 19:42:34;;;;;;;15.20;10.10;;;17.70;69.60;;;;;;10507686;28;20067;-26
2023/03/09 19:47:37;;;;;;;23.50;9.80;;;17.70;69.20;;;;;;10521201;28;20127;-26
2023/03/09 19:52:39;;;;;;;15.88;9.35;;;17.80;68.80;;;;;;10512132;28;20047;-25
2023/03/09 19:57:42;;;;;;;18.90;9.45;;;17.70;69.30;;;;;;10514390;28;20048;-24
2023/03/09 20:02:44;;;;;;;20.40;9.05;;;17.70;69.80;;;;;;10514273;28;20580;-26
2023/03/09 20:07:46;;;;;;;18.10;7.82;;;17.50;70.60;;;;;;10502028;28;20044;-26
2023/03/09 20:12:50;;;;;;;14.10;7.95;;;17.50;70.80;;;;;;10511171;28;20137;-24
2023/03/09 20:17:52;;;;;;;18.73;7.65;;;17.50;71.30;;;;;;10504409;28;20044;-25
2023/03/09 20:22:54;;;;;;;12.63;7.75;;;17.60;70.30;;;;;;10511872;28;20071;-25
2023/03/09 20:27:57;;;;;;;14.77;7.03;;;17.50;69.80;;;;;;10520628;28;20431;-28
2023/03/09 20:32:59;;;;;;;16.92;7.15;;;17.60;69.60;;;;;;10513355;28;20078;-27
2023/03/09 20:38:01;;;;;;;10.63;6.10;;;17.70;68.90;;;;;;10517759;28;20044;-26
2023/03/09 20:43:04;;;;;;;12.27;6.40;;;17.70;69.00;;;;;;10524060;28;20504;-23
2023/03/09 20:48:06;;;;;;;12.07;5.72;;;17.70;68.40;;;;;;10522957;28;20158;-25
2023/03/09 20:53:08;;;;;;;16.17;5.60;;;17.70;68.00;;;;;;10509818;28;20540;-25
2023/03/09 20:58:12;;;;;;;9.73;4.88;;;17.70;68.90;;;;;;10513524;28;20051;-25
2023/03/09 21:03:14;;;;;;;16.75;6.07;;;17.70;68.20;;;;;;10525786;28;20127;-24
2023/03/09 21:08:16;;;;;;;10.95;5.57;;;17.60;68.20;;;;;;10517085;28;20109;-25
2023/03/09 21:13:19;;;;;;;17.73;4.55;;;17.60;68.10;;;;;;10525389;28;21576;-26
2023/03/09 21:18:21;;;;;;;8.43;4.38;;;17.60;68.10;;;;;;10515274;28;20059;-26
2023/03/09 21:23:23;;;;;;;11.10;4.90;;;17.60;67.90;;;;;;10518050;28;20040;-26
2023/03/09 21:28:26;;;;;;;13.05;4.68;;;17.70;67.80;;;;;;10521537;28;20103;-26
2023/03/09 21:33:28;;;;;;;9.57;5.20;;;17.60;67.90;;;;;;10506936;28;20130;-25
2023/03/09 21:38:31;;;;;;;10.70;4.57;;;17.60;67.40;;;;;;10516261;28;20144;-35
2023/03/09 21:43:34;;;;;;;6.10;3.40;;;17.60;67.20;;;;;;10520536;28;20571;-25
2023/03/09 21:48:36;;;;;;;10.38;4.25;;;17.60;67.40;;;;;;10506804;28;20177;-25
2023/03/09 21:53:38;;;;;;;11.35;4.97;;;17.60;67.40;;;;;;10518034;28;20063;-23
2023/03/09 21:58:41;;;;;;;5.57;3.53;;;17.50;68.00;;;;;;10525441;28;20446;-25
2023/03/09 22:03:45;;;;;;;10.05;3.17;;;17.50;68.00;;;;;;10525254;28;20474;-27
2023/03/09 22:08:47;;;;;;;12.13;3.35;;;17.30;68.80;;;;;;10517116;28;20052;-25
2023/03/09 22:13:50;;;;;;;;;;;17.30;68.50;;;;;;10506865;28;20487;-25
2023/03/09 22:18:53;;;;;;;4.18;2.67;;;17.30;68.80;;;;;;10506461;28;19998;-26
2023/03/09 22:23:55;;;;;;;;;;;17.40;68.40;;;;;;10518590;28;20127;-25
2023/03/09 22:28:58;;;;;;;17.52;3.78;;;17.30;69.00;;;;;;10516236;28;19920;-25
2023/03/09 22:34:02;;;;;;;9.73;3.47;;;17.20;69.00;;;;;;10519868;28;20132;-27
2023/03/09 22:39:05;;;;;;;8.15;2.80;;;17.20;69.30;;;;;;10519643;28;20073;-26
2023/03/09 22:44:08;;;;;;;4.00;2.42;;;17.20;69.10;;;;;;10514781;28;20129;-27
2023/03/09 22:49:11;;;;;;;6.32;2.70;;;17.20;68.80;;;;;;10513307;28;20051;-28
2023/03/09 22:54:13;;;;;;;6.50;3.10;;;17.10;69.40;;;;;;10524824;28;20040;-26
2023/03/09 22:59:16;;;;;;;6.00;2.93;;;17.00;70.10;;;;;;10525784;28;20589;-28
2023/03/09 23:04:20;;;;;;;6.03;2.35;;;17.10;69.50;;;;;;10516926;28;20720;-31
2023/03/09 23:09:23;;;;;;;4.75;3.13;;;17.10;69.70;;;;;;10520662;28;20055;-26
2023/03/09 23:14:29;;;;;;;3.97;2.38;;;17.10;69.00;;;;;;10513443;28;20079;-27
2023/03/09 23:19:31;;;;;;;5.85;2.33;;;17.00;69.70;;;;;;10520616;28;20056;-26
2023/03/09 23:24:33;;;;;;;5.68;2.28;;;16.80;70.50;;;;;;10518637;28;20074;-25
2023/03/09 23:29:36;;;;;;;5.03;2.42;;;16.80;70.50;;;;;;10524861;28;20468;-26
2023/03/09 23:34:38;;;;;;;3.10;2.15;;;16.80;71.00;;;;;;10510699;28;20104;-25
2023/03/09 23:39:40;;;;;;;3.43;2.20;;;16.80;70.60;;;;;;10515078;28;20365;-28
2023/03/09 23:44:43;;;;;;;5.37;2.37;;;16.90;70.20;;;;;;10507407;28;20140;-27
2023/03/09 23:49:50;;;;;;;4.53;2.28;;;16.70;71.20;;;;;;10515143;28;20406;-27
2023/03/09 23:54:54;;;;;;;3.88;2.25;;;16.80;71.00;;;;;;10531755;28;20079;-27
2023/03/09 23:59:59;;;;;;;4.18;1.70;;;16.80;70.30;;;;;;10534458;28;20040;-24
